Pittsburgh, Pennsylvania
Traffic Map
Current Weather Conditions
Pittsburgh, Pennsylvania
Overcast
Overcast
-1°
Feels Like: -6°
Wind Chill: -6° Ceiling: 2500
Heat Index: -1° Visibility: 10mi
Dew Point: -6° Wind: 14mph
Humidity: 67% Direction: 250° (WSW)
Pressure: 30.07in Gusts: 20mph
Raw Report DataKAGC 172253Z 25012G17KT 10SM OVC025 M01/M06 A3007 RMK AO2 SLP197 T10061061
Traffic Incident Summary
Active as of:
Severity:
Category:
InformationThere was an issue retrieving the traffic information for this location. Please try a different location or try again shortly.
Advertisements
Track Severe Weather on mobile